sensor_id;sensor_type;location;lat;lon;timestamp;P1;durP1;ratioP1;P2;durP2;ratioP2
20454;SDS011;10386;54.314;10.022;2024-02-23T00:02:13;2.10;;;1.07;;
20454;SDS011;10386;54.314;10.022;2024-02-23T00:04:40;1.47;;;1.10;;
20454;SDS011;10386;54.314;10.022;2024-02-23T00:07:07;1.77;;;1.00;;
20454;SDS011;10386;54.314;10.022;2024-02-23T00:09:34;1.73;;;1.20;;
20454;SDS011;10386;54.314;10.022;2024-02-23T00:12:01;3.53;;;0.97;;
20454;SDS011;10386;54.314;10.022;2024-02-23T00:14:29;1.60;;;0.73;;
20454;SDS011;10386;54.314;10.022;2024-02-23T00:16:57;4.07;;;1.20;;
20454;SDS011;10386;54.314;10.022;2024-02-23T00:19:25;3.03;;;0.90;;
20454;SDS011;10386;54.314;10.022;2024-02-23T00:21:52;2.73;;;0.90;;
20454;SDS011;10386;54.314;10.022;2024-02-23T00:24:19;1.07;;;0.97;;
20454;SDS011;10386;54.314;10.022;2024-02-23T00:26:49;1.07;;;1.07;;
20454;SDS011;10386;54.314;10.022;2024-02-23T00:29:17;1.80;;;0.90;;
20454;SDS011;10386;54.314;10.022;2024-02-23T00:31:44;1.07;;;1.03;;
20454;SDS011;10386;54.314;10.022;2024-02-23T00:34:14;4.37;;;1.10;;
20454;SDS011;10386;54.314;10.022;2024-02-23T00:36:42;0.83;;;0.80;;
20454;SDS011;10386;54.314;10.022;2024-02-23T00:39:11;1.97;;;0.93;;
20454;SDS011;10386;54.314;10.022;2024-02-23T00:41:38;0.80;;;0.77;;
20454;SDS011;10386;54.314;10.022;2024-02-23T00:44:05;2.70;;;1.07;;
20454;SDS011;10386;54.314;10.022;2024-02-23T00:46:32;3.30;;;1.40;;
20454;SDS011;10386;54.314;10.022;2024-02-23T00:49:00;0.70;;;0.70;;
20454;SDS011;10386;54.314;10.022;2024-02-23T00:51:27;0.77;;;0.73;;
20454;SDS011;10386;54.314;10.022;2024-02-23T00:53:54;1.83;;;0.80;;
20454;SDS011;10386;54.314;10.022;2024-02-23T00:56:21;0.90;;;0.90;;
20454;SDS011;10386;54.314;10.022;2024-02-23T00:58:58;0.80;;;0.80;;
20454;SDS011;10386;54.314;10.022;2024-02-23T01:01:25;0.73;;;0.73;;
20454;SDS011;10386;54.314;10.022;2024-02-23T01:03:53;0.73;;;0.73;;
20454;SDS011;10386;54.314;10.022;2024-02-23T01:06:20;0.70;;;0.70;;
20454;SDS011;10386;54.314;10.022;2024-02-23T01:08:47;0.93;;;0.90;;
20454;SDS011;10386;54.314;10.022;2024-02-23T01:11:14;0.80;;;0.80;;
20454;SDS011;10386;54.314;10.022;2024-02-23T01:13:41;0.90;;;0.90;;
20454;SDS011;10386;54.314;10.022;2024-02-23T01:16:08;1.83;;;0.80;;
20454;SDS011;10386;54.314;10.022;2024-02-23T01:18:35;1.50;;;0.70;;
20454;SDS011;10386;54.314;10.022;2024-02-23T01:21:02;2.90;;;0.87;;
20454;SDS011;10386;54.314;10.022;2024-02-23T01:23:29;0.97;;;0.60;;
20454;SDS011;10386;54.314;10.022;2024-02-23T01:25:56;0.70;;;0.70;;
20454;SDS011;10386;54.314;10.022;2024-02-23T01:28:23;0.80;;;0.80;;
20454;SDS011;10386;54.314;10.022;2024-02-23T01:30:49;0.70;;;0.70;;
20454;SDS011;10386;54.314;10.022;2024-02-23T01:33:16;1.27;;;0.60;;
20454;SDS011;10386;54.314;10.022;2024-02-23T01:35:43;0.60;;;0.60;;
20454;SDS011;10386;54.314;10.022;2024-02-23T01:38:10;3.00;;;0.80;;
20454;SDS011;10386;54.314;10.022;2024-02-23T01:40:37;0.67;;;0.50;;
20454;SDS011;10386;54.314;10.022;2024-02-23T01:43:04;1.27;;;0.63;;
20454;SDS011;10386;54.314;10.022;2024-02-23T01:45:31;1.17;;;0.90;;
20454;SDS011;10386;54.314;10.022;2024-02-23T01:47:58;0.60;;;0.60;;
20454;SDS011;10386;54.314;10.022;2024-02-23T01:50:27;1.67;;;0.60;;
20454;SDS011;10386;54.314;10.022;2024-02-23T01:52:56;0.70;;;0.70;;
20454;SDS011;10386;54.314;10.022;2024-02-23T01:55:26;0.90;;;0.70;;
20454;SDS011;10386;54.314;10.022;2024-02-23T01:57:53;1.43;;;0.60;;
20454;SDS011;10386;54.314;10.022;2024-02-23T02:00:21;2.47;;;0.70;;
20454;SDS011;10386;54.314;10.022;2024-02-23T02:02:48;1.87;;;1.00;;
20454;SDS011;10386;54.314;10.022;2024-02-23T02:05:15;2.40;;;0.70;;
20454;SDS011;10386;54.314;10.022;2024-02-23T02:07:42;0.50;;;0.50;;
20454;SDS011;10386;54.314;10.022;2024-02-23T02:10:09;1.50;;;0.57;;
20454;SDS011;10386;54.314;10.022;2024-02-23T02:12:36;0.93;;;0.93;;
20454;SDS011;10386;54.314;10.022;2024-02-23T02:15:03;1.70;;;0.50;;
20454;SDS011;10386;54.314;10.022;2024-02-23T02:17:30;1.70;;;1.07;;
20454;SDS011;10386;54.314;10.022;2024-02-23T02:20:03;0.50;;;0.50;;
20454;SDS011;10386;54.314;10.022;2024-02-23T02:22:34;0.70;;;0.70;;
20454;SDS011;10386;54.314;10.022;2024-02-23T02:25:02;0.50;;;0.50;;
20454;SDS011;10386;54.314;10.022;2024-02-23T02:27:28;1.50;;;0.70;;
20454;SDS011;10386;54.314;10.022;2024-02-23T02:29:55;0.60;;;0.60;;
20454;SDS011;10386;54.314;10.022;2024-02-23T02:32:25;1.20;;;0.73;;
20454;SDS011;10386;54.314;10.022;2024-02-23T02:34:52;1.23;;;0.60;;
20454;SDS011;10386;54.314;10.022;2024-02-23T02:37:20;2.17;;;0.73;;
20454;SDS011;10386;54.314;10.022;2024-02-23T02:39:47;0.70;;;0.70;;
20454;SDS011;10386;54.314;10.022;2024-02-23T02:42:14;1.70;;;0.77;;
20454;SDS011;10386;54.314;10.022;2024-02-23T02:44:41;1.53;;;0.57;;
20454;SDS011;10386;54.314;10.022;2024-02-23T02:47:07;3.97;;;0.90;;
20454;SDS011;10386;54.314;10.022;2024-02-23T02:49:34;0.90;;;0.90;;
20454;SDS011;10386;54.314;10.022;2024-02-23T02:52:01;2.00;;;0.80;;
20454;SDS011;10386;54.314;10.022;2024-02-23T02:54:28;2.73;;;0.67;;
20454;SDS011;10386;54.314;10.022;2024-02-23T02:56:55;1.60;;;0.80;;
20454;SDS011;10386;54.314;10.022;2024-02-23T02:59:22;6.70;;;1.53;;
20454;SDS011;10386;54.314;10.022;2024-02-23T03:01:53;8.23;;;1.20;;
20454;SDS011;10386;54.314;10.022;2024-02-23T03:04:20;6.23;;;1.33;;
20454;SDS011;10386;54.314;10.022;2024-02-23T03:06:47;3.20;;;1.50;;
20454;SDS011;10386;54.314;10.022;2024-02-23T03:09:14;7.50;;;1.37;;
20454;SDS011;10386;54.314;10.022;2024-02-23T03:11:41;8.10;;;1.50;;
20454;SDS011;10386;54.314;10.022;2024-02-23T03:14:08;4.27;;;1.37;;
20454;SDS011;10386;54.314;10.022;2024-02-23T03:16:36;6.70;;;2.00;;
20454;SDS011;10386;54.314;10.022;2024-02-23T03:19:04;8.73;;;2.00;;
20454;SDS011;10386;54.314;10.022;2024-02-23T03:21:30;6.97;;;1.50;;
20454;SDS011;10386;54.314;10.022;2024-02-23T03:23:57;11.20;;;1.87;;
20454;SDS011;10386;54.314;10.022;2024-02-23T03:26:24;12.57;;;1.80;;
20454;SDS011;10386;54.314;10.022;2024-02-23T03:28:51;5.33;;;1.63;;
20454;SDS011;10386;54.314;10.022;2024-02-23T03:31:18;8.53;;;2.40;;
20454;SDS011;10386;54.314;10.022;2024-02-23T03:33:45;8.13;;;1.70;;
20454;SDS011;10386;54.314;10.022;2024-02-23T03:36:11;11.40;;;1.77;;
20454;SDS011;10386;54.314;10.022;2024-02-23T03:38:39;3.67;;;1.27;;
20454;SDS011;10386;54.314;10.022;2024-02-23T03:41:06;3.37;;;1.50;;
20454;SDS011;10386;54.314;10.022;2024-02-23T03:43:33;8.17;;;2.13;;
20454;SDS011;10386;54.314;10.022;2024-02-23T03:46:00;3.10;;;1.30;;
20454;SDS011;10386;54.314;10.022;2024-02-23T03:48:27;2.33;;;1.33;;
20454;SDS011;10386;54.314;10.022;2024-02-23T03:50:54;3.43;;;1.57;;
20454;SDS011;10386;54.314;10.022;2024-02-23T03:53:21;4.00;;;1.30;;
20454;SDS011;10386;54.314;10.022;2024-02-23T03:55:48;4.20;;;1.53;;
20454;SDS011;10386;54.314;10.022;2024-02-23T03:58:15;8.50;;;1.50;;
20454;SDS011;10386;54.314;10.022;2024-02-23T04:00:43;4.60;;;1.27;;
20454;SDS011;10386;54.314;10.022;2024-02-23T04:03:10;5.60;;;1.27;;
20454;SDS011;10386;54.314;10.022;2024-02-23T04:05:37;1.63;;;1.27;;
20454;SDS011;10386;54.314;10.022;2024-02-23T04:08:04;4.40;;;1.93;;
20454;SDS011;10386;54.314;10.022;2024-02-23T04:10:32;9.60;;;1.60;;
20454;SDS011;10386;54.314;10.022;2024-02-23T04:13:00;1.50;;;1.37;;
20454;SDS011;10386;54.314;10.022;2024-02-23T04:15:27;3.73;;;1.47;;
20454;SDS011;10386;54.314;10.022;2024-02-23T04:17:54;6.07;;;1.47;;
20454;SDS011;10386;54.314;10.022;2024-02-23T04:20:21;4.47;;;1.40;;
20454;SDS011;10386;54.314;10.022;2024-02-23T04:22:48;9.17;;;1.53;;
20454;SDS011;10386;54.314;10.022;2024-02-23T04:25:15;4.07;;;1.37;;
20454;SDS011;10386;54.314;10.022;2024-02-23T04:27:42;3.23;;;1.40;;
20454;SDS011;10386;54.314;10.022;2024-02-23T04:30:10;3.03;;;1.00;;
20454;SDS011;10386;54.314;10.022;2024-02-23T04:32:38;1.67;;;1.50;;
20454;SDS011;10386;54.314;10.022;2024-02-23T04:35:05;2.97;;;1.47;;
20454;SDS011;10386;54.314;10.022;2024-02-23T04:37:32;4.60;;;1.87;;
20454;SDS011;10386;54.314;10.022;2024-02-23T04:40:02;6.23;;;1.63;;
20454;SDS011;10386;54.314;10.022;2024-02-23T04:42:32;5.37;;;1.83;;
20454;SDS011;10386;54.314;10.022;2024-02-23T04:44:59;4.43;;;1.90;;
20454;SDS011;10386;54.314;10.022;2024-02-23T04:47:26;5.63;;;1.77;;
20454;SDS011;10386;54.314;10.022;2024-02-23T04:49:52;6.03;;;1.80;;
20454;SDS011;10386;54.314;10.022;2024-02-23T04:52:19;5.60;;;1.73;;
20454;SDS011;10386;54.314;10.022;2024-02-23T04:54:46;6.30;;;2.13;;
20454;SDS011;10386;54.314;10.022;2024-02-23T04:57:13;7.37;;;2.07;;
20454;SDS011;10386;54.314;10.022;2024-02-23T04:59:40;5.00;;;2.07;;
20454;SDS011;10386;54.314;10.022;2024-02-23T05:02:07;6.47;;;2.77;;
20454;SDS011;10386;54.314;10.022;2024-02-23T05:04:34;7.00;;;2.13;;
20454;SDS011;10386;54.314;10.022;2024-02-23T05:07:01;3.77;;;2.00;;
20454;SDS011;10386;54.314;10.022;2024-02-23T05:09:28;8.50;;;2.40;;
20454;SDS011;10386;54.314;10.022;2024-02-23T05:11:55;5.77;;;1.73;;
20454;SDS011;10386;54.314;10.022;2024-02-23T05:14:22;5.50;;;1.73;;
20454;SDS011;10386;54.314;10.022;2024-02-23T05:16:49;5.43;;;1.80;;
20454;SDS011;10386;54.314;10.022;2024-02-23T05:19:16;6.77;;;1.90;;
20454;SDS011;10386;54.314;10.022;2024-02-23T05:21:43;5.57;;;1.80;;
20454;SDS011;10386;54.314;10.022;2024-02-23T05:24:10;7.47;;;1.93;;
20454;SDS011;10386;54.314;10.022;2024-02-23T05:26:38;8.93;;;1.90;;
20454;SDS011;10386;54.314;10.022;2024-02-23T05:29:05;7.80;;;2.13;;
20454;SDS011;10386;54.314;10.022;2024-02-23T05:31:45;4.90;;;2.07;;
20454;SDS011;10386;54.314;10.022;2024-02-23T05:34:13;7.10;;;1.70;;
20454;SDS011;10386;54.314;10.022;2024-02-23T05:36:40;9.33;;;2.30;;
20454;SDS011;10386;54.314;10.022;2024-02-23T05:39:07;10.43;;;2.40;;
20454;SDS011;10386;54.314;10.022;2024-02-23T05:41:36;4.57;;;2.10;;
20454;SDS011;10386;54.314;10.022;2024-02-23T05:44:03;6.20;;;2.00;;
20454;SDS011;10386;54.314;10.022;2024-02-23T05:46:32;5.47;;;2.10;;
20454;SDS011;10386;54.314;10.022;2024-02-23T05:48:59;6.23;;;2.40;;
20454;SDS011;10386;54.314;10.022;2024-02-23T05:51:30;6.03;;;2.20;;
20454;SDS011;10386;54.314;10.022;2024-02-23T05:53:57;8.30;;;2.33;;
20454;SDS011;10386;54.314;10.022;2024-02-23T05:56:24;11.93;;;2.50;;
20454;SDS011;10386;54.314;10.022;2024-02-23T05:58:51;5.07;;;2.20;;
20454;SDS011;10386;54.314;10.022;2024-02-23T06:01:18;10.40;;;2.13;;
20454;SDS011;10386;54.314;10.022;2024-02-23T06:03:45;2.30;;;2.10;;
20454;SDS011;10386;54.314;10.022;2024-02-23T06:06:12;4.80;;;2.27;;
20454;SDS011;10386;54.314;10.022;2024-02-23T06:08:40;5.93;;;2.10;;
20454;SDS011;10386;54.314;10.022;2024-02-23T06:11:09;4.70;;;2.10;;
20454;SDS011;10386;54.314;10.022;2024-02-23T06:13:37;3.40;;;2.00;;
20454;SDS011;10386;54.314;10.022;2024-02-23T06:16:04;7.93;;;2.77;;
20454;SDS011;10386;54.314;10.022;2024-02-23T06:18:31;8.00;;;2.80;;
20454;SDS011;10386;54.314;10.022;2024-02-23T06:20:58;6.40;;;2.30;;
20454;SDS011;10386;54.314;10.022;2024-02-23T06:23:28;5.30;;;2.20;;
20454;SDS011;10386;54.314;10.022;2024-02-23T06:25:55;7.13;;;2.13;;
20454;SDS011;10386;54.314;10.022;2024-02-23T06:28:22;3.37;;;2.07;;
20454;SDS011;10386;54.314;10.022;2024-02-23T06:30:52;4.17;;;1.90;;
20454;SDS011;10386;54.314;10.022;2024-02-23T06:33:19;4.60;;;1.80;;
20454;SDS011;10386;54.314;10.022;2024-02-23T06:35:46;9.03;;;2.20;;
20454;SDS011;10386;54.314;10.022;2024-02-23T06:38:12;4.23;;;2.07;;
20454;SDS011;10386;54.314;10.022;2024-02-23T06:40:39;4.40;;;1.50;;
20454;SDS011;10386;54.314;10.022;2024-02-23T06:43:17;5.97;;;2.27;;
20454;SDS011;10386;54.314;10.022;2024-02-23T06:45:48;4.03;;;2.23;;
20454;SDS011;10386;54.314;10.022;2024-02-23T06:48:15;7.03;;;2.47;;
20454;SDS011;10386;54.314;10.022;2024-02-23T06:50:42;6.43;;;2.17;;
20454;SDS011;10386;54.314;10.022;2024-02-23T06:53:09;3.73;;;2.10;;
20454;SDS011;10386;54.314;10.022;2024-02-23T06:55:36;7.17;;;2.30;;
20454;SDS011;10386;54.314;10.022;2024-02-23T06:58:03;4.67;;;2.57;;
20454;SDS011;10386;54.314;10.022;2024-02-23T07:00:31;6.60;;;2.03;;
20454;SDS011;10386;54.314;10.022;2024-02-23T07:02:59;9.10;;;2.70;;
20454;SDS011;10386;54.314;10.022;2024-02-23T07:05:27;7.40;;;2.10;;
20454;SDS011;10386;54.314;10.022;2024-02-23T07:07:54;4.97;;;2.20;;
20454;SDS011;10386;54.314;10.022;2024-02-23T07:10:21;5.13;;;2.20;;
20454;SDS011;10386;54.314;10.022;2024-02-23T07:12:49;7.27;;;2.33;;
20454;SDS011;10386;54.314;10.022;2024-02-23T07:15:19;3.00;;;1.87;;
20454;SDS011;10386;54.314;10.022;2024-02-23T07:17:47;7.20;;;2.20;;
20454;SDS011;10386;54.314;10.022;2024-02-23T07:20:14;3.97;;;1.97;;
20454;SDS011;10386;54.314;10.022;2024-02-23T07:22:44;5.97;;;1.90;;
20454;SDS011;10386;54.314;10.022;2024-02-23T07:25:15;5.80;;;1.90;;
20454;SDS011;10386;54.314;10.022;2024-02-23T07:27:48;4.87;;;2.03;;
20454;SDS011;10386;54.314;10.022;2024-02-23T07:30:16;4.43;;;2.10;;
20454;SDS011;10386;54.314;10.022;2024-02-23T07:32:43;2.30;;;1.90;;
20454;SDS011;10386;54.314;10.022;2024-02-23T07:35:15;3.03;;;1.40;;
20454;SDS011;10386;54.314;10.022;2024-02-23T07:37:41;4.33;;;1.80;;
20454;SDS011;10386;54.314;10.022;2024-02-23T07:40:08;2.73;;;1.83;;
20454;SDS011;10386;54.314;10.022;2024-02-23T07:42:35;5.77;;;1.80;;
20454;SDS011;10386;54.314;10.022;2024-02-23T07:45:06;2.63;;;2.03;;
20454;SDS011;10386;54.314;10.022;2024-02-23T07:47:33;6.60;;;2.53;;
20454;SDS011;10386;54.314;10.022;2024-02-23T07:50:00;5.77;;;2.00;;
20454;SDS011;10386;54.314;10.022;2024-02-23T07:52:27;4.17;;;1.90;;
20454;SDS011;10386;54.314;10.022;2024-02-23T07:54:54;6.33;;;1.70;;
20454;SDS011;10386;54.314;10.022;2024-02-23T07:57:21;4.43;;;2.00;;
20454;SDS011;10386;54.314;10.022;2024-02-23T07:59:48;5.57;;;1.93;;
20454;SDS011;10386;54.314;10.022;2024-02-23T08:02:15;4.90;;;2.17;;
20454;SDS011;10386;54.314;10.022;2024-02-23T08:04:42;5.87;;;2.10;;
20454;SDS011;10386;54.314;10.022;2024-02-23T08:07:09;5.10;;;2.10;;
20454;SDS011;10386;54.314;10.022;2024-02-23T08:09:37;6.43;;;2.00;;
20454;SDS011;10386;54.314;10.022;2024-02-23T08:12:03;7.03;;;2.43;;
20454;SDS011;10386;54.314;10.022;2024-02-23T08:14:31;5.10;;;2.23;;
20454;SDS011;10386;54.314;10.022;2024-02-23T08:16:59;3.10;;;1.90;;
20454;SDS011;10386;54.314;10.022;2024-02-23T08:19:26;4.80;;;2.33;;
20454;SDS011;10386;54.314;10.022;2024-02-23T08:21:53;4.90;;;2.10;;
20454;SDS011;10386;54.314;10.022;2024-02-23T08:24:20;6.80;;;2.20;;
20454;SDS011;10386;54.314;10.022;2024-02-23T08:26:47;4.73;;;3.63;;
20454;SDS011;10386;54.314;10.022;2024-02-23T08:29:14;8.80;;;2.30;;
20454;SDS011;10386;54.314;10.022;2024-02-23T08:31:41;6.40;;;2.73;;
20454;SDS011;10386;54.314;10.022;2024-02-23T08:34:08;8.07;;;2.90;;
20454;SDS011;10386;54.314;10.022;2024-02-23T08:36:35;4.13;;;2.40;;
20454;SDS011;10386;54.314;10.022;2024-02-23T08:39:02;8.17;;;2.50;;
20454;SDS011;10386;54.314;10.022;2024-02-23T08:41:30;7.43;;;3.23;;
20454;SDS011;10386;54.314;10.022;2024-02-23T08:43:57;3.63;;;2.43;;
20454;SDS011;10386;54.314;10.022;2024-02-23T08:46:24;7.67;;;2.53;;
20454;SDS011;10386;54.314;10.022;2024-02-23T08:48:51;3.23;;;2.60;;
20454;SDS011;10386;54.314;10.022;2024-02-23T08:51:18;6.43;;;2.50;;
20454;SDS011;10386;54.314;10.022;2024-02-23T08:53:45;9.43;;;2.93;;
20454;SDS011;10386;54.314;10.022;2024-02-23T08:56:13;10.77;;;2.67;;
20454;SDS011;10386;54.314;10.022;2024-02-23T08:58:42;6.63;;;2.33;;
20454;SDS011;10386;54.314;10.022;2024-02-23T09:01:09;8.17;;;2.97;;
20454;SDS011;10386;54.314;10.022;2024-02-23T09:03:36;8.90;;;2.80;;
20454;SDS011;10386;54.314;10.022;2024-02-23T09:06:03;6.37;;;2.70;;
20454;SDS011;10386;54.314;10.022;2024-02-23T09:08:31;7.93;;;2.67;;
20454;SDS011;10386;54.314;10.022;2024-02-23T09:10:58;6.57;;;2.60;;
20454;SDS011;10386;54.314;10.022;2024-02-23T09:13:25;2.97;;;2.60;;
20454;SDS011;10386;54.314;10.022;2024-02-23T09:15:54;3.97;;;2.47;;
20454;SDS011;10386;54.314;10.022;2024-02-23T09:18:20;4.50;;;2.83;;
20454;SDS011;10386;54.314;10.022;2024-02-23T09:20:47;5.83;;;2.60;;
20454;SDS011;10386;54.314;10.022;2024-02-23T09:23:14;2.80;;;2.57;;
20454;SDS011;10386;54.314;10.022;2024-02-23T09:25:41;6.77;;;2.60;;
20454;SDS011;10386;54.314;10.022;2024-02-23T09:28:10;6.27;;;2.77;;
20454;SDS011;10386;54.314;10.022;2024-02-23T09:30:38;4.50;;;2.20;;
20454;SDS011;10386;54.314;10.022;2024-02-23T09:33:05;6.07;;;2.30;;
20454;SDS011;10386;54.314;10.022;2024-02-23T09:35:33;5.50;;;2.60;;
20454;SDS011;10386;54.314;10.022;2024-02-23T09:38:00;5.47;;;2.50;;
20454;SDS011;10386;54.314;10.022;2024-02-23T09:40:26;7.53;;;2.43;;
20454;SDS011;10386;54.314;10.022;2024-02-23T09:42:57;3.50;;;2.47;;
20454;SDS011;10386;54.314;10.022;2024-02-23T09:45:25;6.60;;;2.83;;
20454;SDS011;10386;54.314;10.022;2024-02-23T09:47:56;4.83;;;2.70;;
20454;SDS011;10386;54.314;10.022;2024-02-23T09:50:24;6.53;;;3.03;;
20454;SDS011;10386;54.314;10.022;2024-02-23T09:52:51;6.60;;;2.50;;
20454;SDS011;10386;54.314;10.022;2024-02-23T09:55:21;4.83;;;2.43;;
20454;SDS011;10386;54.314;10.022;2024-02-23T09:57:49;7.37;;;2.57;;
20454;SDS011;10386;54.314;10.022;2024-02-23T10:00:21;7.93;;;2.60;;
20454;SDS011;10386;54.314;10.022;2024-02-23T10:02:50;9.63;;;2.70;;
20454;SDS011;10386;54.314;10.022;2024-02-23T10:05:17;11.20;;;2.47;;
20454;SDS011;10386;54.314;10.022;2024-02-23T10:07:45;12.57;;;2.67;;
20454;SDS011;10386;54.314;10.022;2024-02-23T10:10:13;6.90;;;2.57;;
20454;SDS011;10386;54.314;10.022;2024-02-23T10:12:40;9.23;;;2.77;;
20454;SDS011;10386;54.314;10.022;2024-02-23T10:15:07;7.33;;;2.33;;
20454;SDS011;10386;54.314;10.022;2024-02-23T10:17:34;8.80;;;2.40;;
20454;SDS011;10386;54.314;10.022;2024-02-23T10:20:02;5.97;;;2.30;;
20454;SDS011;10386;54.314;10.022;2024-02-23T10:22:32;4.30;;;2.30;;
20454;SDS011;10386;54.314;10.022;2024-02-23T10:24:59;6.63;;;2.73;;
20454;SDS011;10386;54.314;10.022;2024-02-23T10:27:26;5.73;;;2.37;;
20454;SDS011;10386;54.314;10.022;2024-02-23T10:29:54;6.20;;;2.10;;
20454;SDS011;10386;54.314;10.022;2024-02-23T10:32:21;6.00;;;2.67;;
20454;SDS011;10386;54.314;10.022;2024-02-23T10:34:50;7.13;;;2.60;;
20454;SDS011;10386;54.314;10.022;2024-02-23T10:37:20;4.70;;;2.10;;
20454;SDS011;10386;54.314;10.022;2024-02-23T10:39:48;5.50;;;2.63;;
20454;SDS011;10386;54.314;10.022;2024-02-23T10:42:20;6.50;;;2.50;;
20454;SDS011;10386;54.314;10.022;2024-02-23T10:44:51;8.13;;;2.40;;
20454;SDS011;10386;54.314;10.022;2024-02-23T10:47:19;6.30;;;2.20;;
20454;SDS011;10386;54.314;10.022;2024-02-23T10:49:48;3.70;;;2.17;;
20454;SDS011;10386;54.314;10.022;2024-02-23T10:52:15;6.70;;;2.40;;
20454;SDS011;10386;54.314;10.022;2024-02-23T10:54:45;5.63;;;2.30;;
20454;SDS011;10386;54.314;10.022;2024-02-23T10:57:13;5.03;;;2.30;;
20454;SDS011;10386;54.314;10.022;2024-02-23T10:59:46;8.20;;;2.23;;
20454;SDS011;10386;54.314;10.022;2024-02-23T11:02:14;5.03;;;2.57;;
20454;SDS011;10386;54.314;10.022;2024-02-23T11:04:45;5.93;;;2.13;;
20454;SDS011;10386;54.314;10.022;2024-02-23T11:07:20;5.63;;;2.30;;
20454;SDS011;10386;54.314;10.022;2024-02-23T11:09:49;5.97;;;2.50;;
20454;SDS011;10386;54.314;10.022;2024-02-23T11:12:25;3.97;;;2.07;;
20454;SDS011;10386;54.314;10.022;2024-02-23T11:14:58;5.90;;;2.63;;
20454;SDS011;10386;54.314;10.022;2024-02-23T11:17:27;6.50;;;1.77;;
20454;SDS011;10386;54.314;10.022;2024-02-23T11:19:56;10.67;;;2.70;;
20454;SDS011;10386;54.314;10.022;2024-02-23T11:22:24;5.53;;;2.30;;
20454;SDS011;10386;54.314;10.022;2024-02-23T11:25:07;10.27;;;2.00;;
20454;SDS011;10386;54.314;10.022;2024-02-23T11:27:37;7.93;;;2.10;;
20454;SDS011;10386;54.314;10.022;2024-02-23T11:30:07;8.10;;;2.03;;
20454;SDS011;10386;54.314;10.022;2024-02-23T11:32:40;4.03;;;2.17;;
20454;SDS011;10386;54.314;10.022;2024-02-23T11:35:10;6.10;;;1.77;;
20454;SDS011;10386;54.314;10.022;2024-02-23T11:37:56;8.03;;;1.90;;
20454;SDS011;10386;54.314;10.022;2024-02-23T11:40:26;4.60;;;2.07;;
20454;SDS011;10386;54.314;10.022;2024-02-23T11:42:57;5.83;;;2.37;;
20454;SDS011;10386;54.314;10.022;2024-02-23T11:45:29;6.07;;;2.00;;
20454;SDS011;10386;54.314;10.022;2024-02-23T11:47:58;3.60;;;2.03;;
20454;SDS011;10386;54.314;10.022;2024-02-23T11:50:26;3.60;;;2.10;;
20454;SDS011;10386;54.314;10.022;2024-02-23T11:52:53;5.17;;;2.07;;
20454;SDS011;10386;54.314;10.022;2024-02-23T11:55:20;8.07;;;2.07;;
20454;SDS011;10386;54.314;10.022;2024-02-23T11:57:50;2.97;;;2.03;;
20454;SDS011;10386;54.314;10.022;2024-02-23T12:00:31;4.77;;;1.87;;
20454;SDS011;10386;54.314;10.022;2024-02-23T12:02:58;4.90;;;2.50;;
20454;SDS011;10386;54.314;10.022;2024-02-23T12:05:26;5.07;;;2.10;;
20454;SDS011;10386;54.314;10.022;2024-02-23T12:07:53;4.50;;;1.73;;
20454;SDS011;10386;54.314;10.022;2024-02-23T12:10:21;6.83;;;2.20;;
20454;SDS011;10386;54.314;10.022;2024-02-23T12:12:48;6.37;;;2.00;;
20454;SDS011;10386;54.314;10.022;2024-02-23T12:15:16;6.77;;;2.10;;
20454;SDS011;10386;54.314;10.022;2024-02-23T12:17:46;2.87;;;1.70;;
20454;SDS011;10386;54.314;10.022;2024-02-23T12:20:16;4.30;;;2.10;;
20454;SDS011;10386;54.314;10.022;2024-02-23T12:22:44;5.57;;;2.03;;
20454;SDS011;10386;54.314;10.022;2024-02-23T12:25:12;7.50;;;2.87;;
20454;SDS011;10386;54.314;10.022;2024-02-23T12:27:43;5.70;;;2.03;;
20454;SDS011;10386;54.314;10.022;2024-02-23T12:30:26;3.00;;;1.93;;
20454;SDS011;10386;54.314;10.022;2024-02-23T12:33:33;6.77;;;1.73;;
20454;SDS011;10386;54.314;10.022;2024-02-23T12:36:14;2.27;;;1.70;;
20454;SDS011;10386;54.314;10.022;2024-02-23T12:38:41;4.40;;;1.70;;
20454;SDS011;10386;54.314;10.022;2024-02-23T12:41:08;11.20;;;1.73;;
20454;SDS011;10386;54.314;10.022;2024-02-23T12:43:35;4.97;;;1.80;;
20454;SDS011;10386;54.314;10.022;2024-02-23T12:46:06;5.40;;;1.87;;
20454;SDS011;10386;54.314;10.022;2024-02-23T12:48:35;2.07;;;1.90;;
20454;SDS011;10386;54.314;10.022;2024-02-23T12:51:02;4.57;;;1.93;;
20454;SDS011;10386;54.314;10.022;2024-02-23T12:53:31;6.43;;;2.20;;
20454;SDS011;10386;54.314;10.022;2024-02-23T12:56:06;7.87;;;1.97;;
20454;SDS011;10386;54.314;10.022;2024-02-23T12:58:38;4.40;;;2.30;;
20454;SDS011;10386;54.314;10.022;2024-02-23T13:01:06;3.90;;;2.20;;
20454;SDS011;10386;54.314;10.022;2024-02-23T13:03:34;5.70;;;2.00;;
20454;SDS011;10386;54.314;10.022;2024-02-23T13:06:02;3.43;;;1.90;;
20454;SDS011;10386;54.314;10.022;2024-02-23T13:08:30;7.73;;;2.13;;
20454;SDS011;10386;54.314;10.022;2024-02-23T13:10:57;5.87;;;1.93;;
20454;SDS011;10386;54.314;10.022;2024-02-23T13:13:24;4.87;;;2.13;;
20454;SDS011;10386;54.314;10.022;2024-02-23T13:15:51;5.27;;;2.00;;
20454;SDS011;10386;54.314;10.022;2024-02-23T13:18:19;5.83;;;2.00;;
20454;SDS011;10386;54.314;10.022;2024-02-23T13:20:46;3.70;;;2.03;;
20454;SDS011;10386;54.314;10.022;2024-02-23T13:23:13;8.17;;;2.00;;
20454;SDS011;10386;54.314;10.022;2024-02-23T13:25:43;3.50;;;1.97;;
20454;SDS011;10386;54.314;10.022;2024-02-23T13:28:10;4.50;;;2.07;;
20454;SDS011;10386;54.314;10.022;2024-02-23T13:30:38;6.27;;;1.90;;
20454;SDS011;10386;54.314;10.022;2024-02-23T13:33:05;7.53;;;1.97;;
20454;SDS011;10386;54.314;10.022;2024-02-23T13:35:35;7.80;;;2.20;;
20454;SDS011;10386;54.314;10.022;2024-02-23T13:38:02;5.30;;;1.90;;
20454;SDS011;10386;54.314;10.022;2024-02-23T13:40:32;2.57;;;2.13;;
20454;SDS011;10386;54.314;10.022;2024-02-23T13:42:59;3.63;;;2.00;;
20454;SDS011;10386;54.314;10.022;2024-02-23T13:45:26;2.73;;;1.70;;
20454;SDS011;10386;54.314;10.022;2024-02-23T13:47:57;4.23;;;1.90;;
20454;SDS011;10386;54.314;10.022;2024-02-23T13:50:26;5.03;;;1.73;;
20454;SDS011;10386;54.314;10.022;2024-02-23T13:52:53;2.00;;;1.73;;
20454;SDS011;10386;54.314;10.022;2024-02-23T13:55:20;4.77;;;1.70;;
20454;SDS011;10386;54.314;10.022;2024-02-23T13:57:48;4.33;;;1.93;;
20454;SDS011;10386;54.314;10.022;2024-02-23T14:00:16;3.53;;;1.83;;
20454;SDS011;10386;54.314;10.022;2024-02-23T14:02:46;2.93;;;1.97;;
20454;SDS011;10386;54.314;10.022;2024-02-23T14:05:14;3.30;;;1.97;;
20454;SDS011;10386;54.314;10.022;2024-02-23T14:07:44;2.53;;;1.80;;
20454;SDS011;10386;54.314;10.022;2024-02-23T14:10:11;6.70;;;1.80;;
20454;SDS011;10386;54.314;10.022;2024-02-23T14:12:38;4.87;;;2.03;;
20454;SDS011;10386;54.314;10.022;2024-02-23T14:15:05;7.57;;;1.90;;
20454;SDS011;10386;54.314;10.022;2024-02-23T14:17:32;4.90;;;1.80;;
20454;SDS011;10386;54.314;10.022;2024-02-23T14:20:01;3.57;;;1.50;;
20454;SDS011;10386;54.314;10.022;2024-02-23T14:22:30;3.67;;;1.93;;
20454;SDS011;10386;54.314;10.022;2024-02-23T14:24:58;6.83;;;1.60;;
20454;SDS011;10386;54.314;10.022;2024-02-23T14:27:25;4.57;;;1.70;;
20454;SDS011;10386;54.314;10.022;2024-02-23T14:29:57;3.43;;;1.40;;
20454;SDS011;10386;54.314;10.022;2024-02-23T14:32:24;6.03;;;1.60;;
20454;SDS011;10386;54.314;10.022;2024-02-23T14:34:51;5.87;;;1.77;;
20454;SDS011;10386;54.314;10.022;2024-02-23T14:37:18;2.33;;;1.60;;
20454;SDS011;10386;54.314;10.022;2024-02-23T14:39:45;3.37;;;1.50;;